sensor_id;sensor_type;location;lat;lon;timestamp;temperature;humidity
16732;DHT22;8484;50.904;9.192;2023-05-19T00:01:58;9.80;99.90
16732;DHT22;8484;50.904;9.192;2023-05-19T00:04:26;9.80;99.90
16732;DHT22;8484;50.904;9.192;2023-05-19T00:06:55;9.70;99.90
16732;DHT22;8484;50.904;9.192;2023-05-19T00:09:25;9.70;99.90
16732;DHT22;8484;50.904;9.192;2023-05-19T00:11:52;9.70;99.90
16732;DHT22;8484;50.904;9.192;2023-05-19T00:14:19;9.70;99.90
16732;DHT22;8484;50.904;9.192;2023-05-19T00:16:47;9.70;99.90
16732;DHT22;8484;50.904;9.192;2023-05-19T00:19:14;9.70;99.90
16732;DHT22;8484;50.904;9.192;2023-05-19T00:21:41;9.70;99.90
16732;DHT22;8484;50.904;9.192;2023-05-19T00:24:09;9.70;99.90
16732;DHT22;8484;50.904;9.192;2023-05-19T00:26:36;9.70;99.90
16732;DHT22;8484;50.904;9.192;2023-05-19T00:29:03;9.50;99.90
16732;DHT22;8484;50.904;9.192;2023-05-19T00:31:30;9.50;99.90
16732;DHT22;8484;50.904;9.192;2023-05-19T00:33:58;9.40;99.90
16732;DHT22;8484;50.904;9.192;2023-05-19T00:36:25;9.50;99.90
16732;DHT22;8484;50.904;9.192;2023-05-19T00:38:52;9.50;99.90
16732;DHT22;8484;50.904;9.192;2023-05-19T00:41:20;9.30;99.90
16732;DHT22;8484;50.904;9.192;2023-05-19T00:43:47;9.40;99.90
16732;DHT22;8484;50.904;9.192;2023-05-19T00:46:14;9.30;99.90
16732;DHT22;8484;50.904;9.192;2023-05-19T00:48:41;9.30;99.90
16732;DHT22;8484;50.904;9.192;2023-05-19T00:51:10;9.30;99.90
16732;DHT22;8484;50.904;9.192;2023-05-19T00:53:39;9.40;99.90
16732;DHT22;8484;50.904;9.192;2023-05-19T00:56:06;9.40;99.90
16732;DHT22;8484;50.904;9.192;2023-05-19T00:58:35;9.50;99.90
16732;DHT22;8484;50.904;9.192;2023-05-19T01:01:04;9.40;99.90
16732;DHT22;8484;50.904;9.192;2023-05-19T01:03:34;9.40;99.90
16732;DHT22;8484;50.904;9.192;2023-05-19T01:06:00;9.30;99.90
16732;DHT22;8484;50.904;9.192;2023-05-19T01:08:30;9.30;99.90
16732;DHT22;8484;50.904;9.192;2023-05-19T01:10:57;9.30;99.90
16732;DHT22;8484;50.904;9.192;2023-05-19T01:13:24;9.20;99.90
16732;DHT22;8484;50.904;9.192;2023-05-19T01:16:06;9.20;99.90
16732;DHT22;8484;50.904;9.192;2023-05-19T01:18:48;9.30;99.90
16732;DHT22;8484;50.904;9.192;2023-05-19T01:21:53;9.20;99.90
16732;DHT22;8484;50.904;9.192;2023-05-19T01:24:52;9.10;99.90
16732;DHT22;8484;50.904;9.192;2023-05-19T01:30:36;9.00;99.90
16732;DHT22;8484;50.904;9.192;2023-05-19T01:33:07;8.90;99.90
16732;DHT22;8484;50.904;9.192;2023-05-19T01:35:35;8.90;99.90
16732;DHT22;8484;50.904;9.192;2023-05-19T01:38:04;8.80;99.90
16732;DHT22;8484;50.904;9.192;2023-05-19T01:40:33;8.70;99.90
16732;DHT22;8484;50.904;9.192;2023-05-19T01:43:01;8.70;99.90
16732;DHT22;8484;50.904;9.192;2023-05-19T01:45:29;8.70;99.90
16732;DHT22;8484;50.904;9.192;2023-05-19T01:48:00;8.60;99.90
16732;DHT22;8484;50.904;9.192;2023-05-19T01:50:28;8.60;99.90
16732;DHT22;8484;50.904;9.192;2023-05-19T01:52:55;8.60;99.90
16732;DHT22;8484;50.904;9.192;2023-05-19T01:55:22;8.60;99.90
16732;DHT22;8484;50.904;9.192;2023-05-19T01:57:59;8.70;99.90
16732;DHT22;8484;50.904;9.192;2023-05-19T02:00:38;8.60;99.90
16732;DHT22;8484;50.904;9.192;2023-05-19T02:03:20;8.50;99.90
16732;DHT22;8484;50.904;9.192;2023-05-19T02:05:54;8.40;99.90
16732;DHT22;8484;50.904;9.192;2023-05-19T02:08:28;8.60;99.90
16732;DHT22;8484;50.904;9.192;2023-05-19T02:11:02;8.50;99.90
16732;DHT22;8484;50.904;9.192;2023-05-19T02:13:36;8.50;99.90
16732;DHT22;8484;50.904;9.192;2023-05-19T02:16:04;8.50;99.90
16732;DHT22;8484;50.904;9.192;2023-05-19T02:18:33;8.60;99.90
16732;DHT22;8484;50.904;9.192;2023-05-19T02:21:00;8.50;99.90
16732;DHT22;8484;50.904;9.192;2023-05-19T02:23:27;8.50;99.90
16732;DHT22;8484;50.904;9.192;2023-05-19T02:25:54;8.50;99.90
16732;DHT22;8484;50.904;9.192;2023-05-19T02:28:21;8.40;99.90
16732;DHT22;8484;50.904;9.192;2023-05-19T02:30:48;8.40;99.90
16732;DHT22;8484;50.904;9.192;2023-05-19T02:33:14;8.30;99.90
16732;DHT22;8484;50.904;9.192;2023-05-19T02:35:43;8.30;99.90
16732;DHT22;8484;50.904;9.192;2023-05-19T02:38:10;8.40;99.90
16732;DHT22;8484;50.904;9.192;2023-05-19T02:40:37;8.30;99.90
16732;DHT22;8484;50.904;9.192;2023-05-19T02:43:04;8.20;99.90
16732;DHT22;8484;50.904;9.192;2023-05-19T02:45:30;8.20;99.90
16732;DHT22;8484;50.904;9.192;2023-05-19T02:47:58;8.30;99.90
16732;DHT22;8484;50.904;9.192;2023-05-19T02:50:25;8.30;99.90
16732;DHT22;8484;50.904;9.192;2023-05-19T02:52:53;8.30;99.90
16732;DHT22;8484;50.904;9.192;2023-05-19T02:55:20;8.20;99.90
16732;DHT22;8484;50.904;9.192;2023-05-19T02:57:47;8.20;99.90
16732;DHT22;8484;50.904;9.192;2023-05-19T03:00:15;8.20;99.90
16732;DHT22;8484;50.904;9.192;2023-05-19T03:02:41;8.20;99.90
16732;DHT22;8484;50.904;9.192;2023-05-19T03:05:09;8.20;99.90
16732;DHT22;8484;50.904;9.192;2023-05-19T03:07:36;8.20;99.90
16732;DHT22;8484;50.904;9.192;2023-05-19T03:10:06;8.10;99.90
16732;DHT22;8484;50.904;9.192;2023-05-19T03:12:33;8.20;99.90
16732;DHT22;8484;50.904;9.192;2023-05-19T03:14:59;8.10;99.90
16732;DHT22;8484;50.904;9.192;2023-05-19T03:17:26;8.00;99.90
16732;DHT22;8484;50.904;9.192;2023-05-19T03:19:58;8.00;99.90
16732;DHT22;8484;50.904;9.192;2023-05-19T03:22:25;7.90;99.90
16732;DHT22;8484;50.904;9.192;2023-05-19T03:24:52;8.00;99.90
16732;DHT22;8484;50.904;9.192;2023-05-19T03:27:20;8.00;99.90
16732;DHT22;8484;50.904;9.192;2023-05-19T03:29:47;7.90;99.90
16732;DHT22;8484;50.904;9.192;2023-05-19T03:32:14;7.90;99.90
16732;DHT22;8484;50.904;9.192;2023-05-19T03:34:41;7.90;99.90
16732;DHT22;8484;50.904;9.192;2023-05-19T03:37:08;7.90;99.90
16732;DHT22;8484;50.904;9.192;2023-05-19T03:39:37;8.00;99.90
16732;DHT22;8484;50.904;9.192;2023-05-19T03:42:05;7.90;99.90
16732;DHT22;8484;50.904;9.192;2023-05-19T03:44:33;7.80;99.90
16732;DHT22;8484;50.904;9.192;2023-05-19T03:47:00;7.80;99.90
16732;DHT22;8484;50.904;9.192;2023-05-19T03:49:27;7.80;99.90
16732;DHT22;8484;50.904;9.192;2023-05-19T03:51:54;7.80;99.90
16732;DHT22;8484;50.904;9.192;2023-05-19T03:54:21;7.70;99.90
16732;DHT22;8484;50.904;9.192;2023-05-19T03:56:48;7.80;99.90
16732;DHT22;8484;50.904;9.192;2023-05-19T03:59:15;7.70;99.90
16732;DHT22;8484;50.904;9.192;2023-05-19T04:01:43;7.70;99.90
16732;DHT22;8484;50.904;9.192;2023-05-19T04:04:11;7.80;99.90
16732;DHT22;8484;50.904;9.192;2023-05-19T04:06:37;7.80;99.90
16732;DHT22;8484;50.904;9.192;2023-05-19T04:09:10;7.80;99.90
16732;DHT22;8484;50.904;9.192;2023-05-19T04:11:38;7.80;99.90
16732;DHT22;8484;50.904;9.192;2023-05-19T04:14:05;7.90;99.90
16732;DHT22;8484;50.904;9.192;2023-05-19T04:16:32;7.90;99.90
16732;DHT22;8484;50.904;9.192;2023-05-19T04:19:00;7.90;99.90
16732;DHT22;8484;50.904;9.192;2023-05-19T04:21:27;7.90;99.90
16732;DHT22;8484;50.904;9.192;2023-05-19T04:23:54;7.80;99.90
16732;DHT22;8484;50.904;9.192;2023-05-19T04:26:29;7.80;99.90
16732;DHT22;8484;50.904;9.192;2023-05-19T04:28:59;7.90;99.90
16732;DHT22;8484;50.904;9.192;2023-05-19T04:31:26;8.00;99.90
16732;DHT22;8484;50.904;9.192;2023-05-19T04:33:53;8.10;99.90
16732;DHT22;8484;50.904;9.192;2023-05-19T04:36:21;8.20;99.90
16732;DHT22;8484;50.904;9.192;2023-05-19T04:38:48;8.30;99.90
16732;DHT22;8484;50.904;9.192;2023-05-19T04:41:19;8.40;99.90
16732;DHT22;8484;50.904;9.192;2023-05-19T04:43:46;8.50;99.90
16732;DHT22;8484;50.904;9.192;2023-05-19T04:46:14;8.50;99.90
16732;DHT22;8484;50.904;9.192;2023-05-19T04:48:41;8.50;99.90
16732;DHT22;8484;50.904;9.192;2023-05-19T04:51:08;8.50;99.90
16732;DHT22;8484;50.904;9.192;2023-05-19T04:53:41;8.50;99.90
16732;DHT22;8484;50.904;9.192;2023-05-19T04:56:08;8.60;99.90
16732;DHT22;8484;50.904;9.192;2023-05-19T04:58:35;8.70;99.90
16732;DHT22;8484;50.904;9.192;2023-05-19T05:01:02;8.70;99.90
16732;DHT22;8484;50.904;9.192;2023-05-19T05:03:29;8.70;99.90
16732;DHT22;8484;50.904;9.192;2023-05-19T05:05:57;8.80;99.90
16732;DHT22;8484;50.904;9.192;2023-05-19T05:08:24;8.80;99.90
16732;DHT22;8484;50.904;9.192;2023-05-19T05:10:53;8.90;99.90
16732;DHT22;8484;50.904;9.192;2023-05-19T05:13:22;9.10;99.90
16732;DHT22;8484;50.904;9.192;2023-05-19T05:15:50;9.20;99.90
16732;DHT22;8484;50.904;9.192;2023-05-19T05:18:18;9.40;99.90
16732;DHT22;8484;50.904;9.192;2023-05-19T05:20:45;9.60;99.90
16732;DHT22;8484;50.904;9.192;2023-05-19T05:23:13;9.70;99.90
16732;DHT22;8484;50.904;9.192;2023-05-19T05:25:43;9.90;99.90
16732;DHT22;8484;50.904;9.192;2023-05-19T05:28:11;9.80;99.90
16732;DHT22;8484;50.904;9.192;2023-05-19T05:30:38;9.90;99.90
16732;DHT22;8484;50.904;9.192;2023-05-19T05:33:06;10.00;99.90
16732;DHT22;8484;50.904;9.192;2023-05-19T05:35:33;10.10;99.90
16732;DHT22;8484;50.904;9.192;2023-05-19T05:38:00;10.30;99.90
16732;DHT22;8484;50.904;9.192;2023-05-19T05:40:27;10.50;99.90
16732;DHT22;8484;50.904;9.192;2023-05-19T05:42:54;10.60;99.90
16732;DHT22;8484;50.904;9.192;2023-05-19T05:45:22;10.70;99.90
16732;DHT22;8484;50.904;9.192;2023-05-19T05:47:50;10.90;99.90
16732;DHT22;8484;50.904;9.192;2023-05-19T05:50:18;11.00;99.90
16732;DHT22;8484;50.904;9.192;2023-05-19T05:52:46;11.20;99.90
16732;DHT22;8484;50.904;9.192;2023-05-19T05:55:14;11.30;99.90
16732;DHT22;8484;50.904;9.192;2023-05-19T05:57:41;11.20;99.90
16732;DHT22;8484;50.904;9.192;2023-05-19T06:00:09;11.20;99.90
16732;DHT22;8484;50.904;9.192;2023-05-19T06:02:43;11.30;99.90
16732;DHT22;8484;50.904;9.192;2023-05-19T06:05:11;11.30;99.90
16732;DHT22;8484;50.904;9.192;2023-05-19T06:07:38;11.30;99.90
16732;DHT22;8484;50.904;9.192;2023-05-19T06:10:06;11.10;99.90
16732;DHT22;8484;50.904;9.192;2023-05-19T06:12:34;11.10;99.90
16732;DHT22;8484;50.904;9.192;2023-05-19T06:15:05;11.10;99.90
16732;DHT22;8484;50.904;9.192;2023-05-19T06:17:32;11.30;99.90
16732;DHT22;8484;50.904;9.192;2023-05-19T06:20:01;11.60;99.90
16732;DHT22;8484;50.904;9.192;2023-05-19T06:22:29;11.60;99.90
16732;DHT22;8484;50.904;9.192;2023-05-19T06:24:56;12.00;99.90
16732;DHT22;8484;50.904;9.192;2023-05-19T06:27:22;12.00;99.90
16732;DHT22;8484;50.904;9.192;2023-05-19T06:29:49;12.10;99.90
16732;DHT22;8484;50.904;9.192;2023-05-19T06:32:16;12.60;99.90
16732;DHT22;8484;50.904;9.192;2023-05-19T06:34:43;12.90;99.90
16732;DHT22;8484;50.904;9.192;2023-05-19T06:37:11;12.60;99.90
16732;DHT22;8484;50.904;9.192;2023-05-19T06:39:41;12.50;99.90
16732;DHT22;8484;50.904;9.192;2023-05-19T06:42:08;12.50;99.90
16732;DHT22;8484;50.904;9.192;2023-05-19T06:44:35;12.60;99.90
16732;DHT22;8484;50.904;9.192;2023-05-19T06:47:04;13.00;99.90
16732;DHT22;8484;50.904;9.192;2023-05-19T06:49:34;13.10;99.90
16732;DHT22;8484;50.904;9.192;2023-05-19T06:52:00;13.10;99.90
16732;DHT22;8484;50.904;9.192;2023-05-19T06:54:29;13.50;99.90
16732;DHT22;8484;50.904;9.192;2023-05-19T06:57:03;13.80;99.90
16732;DHT22;8484;50.904;9.192;2023-05-19T06:59:30;14.20;99.90
16732;DHT22;8484;50.904;9.192;2023-05-19T07:01:57;13.90;99.90
16732;DHT22;8484;50.904;9.192;2023-05-19T07:04:24;14.30;99.90
16732;DHT22;8484;50.904;9.192;2023-05-19T07:06:51;14.40;99.90
16732;DHT22;8484;50.904;9.192;2023-05-19T07:09:19;14.40;99.90
16732;DHT22;8484;50.904;9.192;2023-05-19T07:11:47;14.40;99.90
16732;DHT22;8484;50.904;9.192;2023-05-19T07:14:14;14.20;99.90
16732;DHT22;8484;50.904;9.192;2023-05-19T07:16:41;14.40;99.90
16732;DHT22;8484;50.904;9.192;2023-05-19T07:19:08;14.70;99.90
16732;DHT22;8484;50.904;9.192;2023-05-19T07:21:35;14.60;99.90
16732;DHT22;8484;50.904;9.192;2023-05-19T07:24:02;14.90;99.90
16732;DHT22;8484;50.904;9.192;2023-05-19T07:26:30;15.20;99.90
16732;DHT22;8484;50.904;9.192;2023-05-19T07:28:58;15.00;99.90
16732;DHT22;8484;50.904;9.192;2023-05-19T07:31:25;15.40;99.90
16732;DHT22;8484;50.904;9.192;2023-05-19T07:33:52;15.70;99.90
16732;DHT22;8484;50.904;9.192;2023-05-19T07:36:19;15.70;99.90
16732;DHT22;8484;50.904;9.192;2023-05-19T07:38:46;15.90;99.90
16732;DHT22;8484;50.904;9.192;2023-05-19T07:41:13;15.60;99.90
16732;DHT22;8484;50.904;9.192;2023-05-19T07:43:41;15.50;99.90
16732;DHT22;8484;50.904;9.192;2023-05-19T07:46:09;15.70;99.90
16732;DHT22;8484;50.904;9.192;2023-05-19T07:48:36;15.90;99.90
16732;DHT22;8484;50.904;9.192;2023-05-19T07:51:03;15.80;99.90
16732;DHT22;8484;50.904;9.192;2023-05-19T07:53:30;16.00;99.90
16732;DHT22;8484;50.904;9.192;2023-05-19T07:55:57;16.00;99.90
16732;DHT22;8484;50.904;9.192;2023-05-19T07:58:26;16.30;99.90
16732;DHT22;8484;50.904;9.192;2023-05-19T08:00:52;16.40;99.90
16732;DHT22;8484;50.904;9.192;2023-05-19T08:03:24;16.70;99.90
16732;DHT22;8484;50.904;9.192;2023-05-19T08:05:51;16.90;99.90
16732;DHT22;8484;50.904;9.192;2023-05-19T08:08:18;17.00;99.90
16732;DHT22;8484;50.904;9.192;2023-05-19T08:10:45;17.00;99.40
16732;DHT22;8484;50.904;9.192;2023-05-19T08:13:12;17.50;99.10
16732;DHT22;8484;50.904;9.192;2023-05-19T08:15:38;17.80;97.00
16732;DHT22;8484;50.904;9.192;2023-05-19T08:18:05;17.80;98.40
16732;DHT22;8484;50.904;9.192;2023-05-19T08:20:34;18.20;97.10
16732;DHT22;8484;50.904;9.192;2023-05-19T08:23:01;17.90;97.30
16732;DHT22;8484;50.904;9.192;2023-05-19T08:25:28;18.20;96.60
16732;DHT22;8484;50.904;9.192;2023-05-19T08:27:54;18.20;98.00
16732;DHT22;8484;50.904;9.192;2023-05-19T08:30:21;18.40;97.50
16732;DHT22;8484;50.904;9.192;2023-05-19T08:32:48;18.60;95.70
16732;DHT22;8484;50.904;9.192;2023-05-19T08:35:15;18.60;97.30
16732;DHT22;8484;50.904;9.192;2023-05-19T08:37:43;17.80;97.50
16732;DHT22;8484;50.904;9.192;2023-05-19T08:40:15;17.60;96.50
16732;DHT22;8484;50.904;9.192;2023-05-19T08:42:42;17.50;98.90
16732;DHT22;8484;50.904;9.192;2023-05-19T08:45:10;18.10;98.30
16732;DHT22;8484;50.904;9.192;2023-05-19T08:47:37;18.60;98.10
16732;DHT22;8484;50.904;9.192;2023-05-19T08:50:05;18.70;97.30
16732;DHT22;8484;50.904;9.192;2023-05-19T08:52:40;19.20;96.80
16732;DHT22;8484;50.904;9.192;2023-05-19T08:55:18;19.10;96.40
16732;DHT22;8484;50.904;9.192;2023-05-19T08:57:50;19.70;96.70
16732;DHT22;8484;50.904;9.192;2023-05-19T09:00:18;19.40;95.60
16732;DHT22;8484;50.904;9.192;2023-05-19T09:02:47;19.10;96.10
16732;DHT22;8484;50.904;9.192;2023-05-19T09:05:15;19.70;96.10
16732;DHT22;8484;50.904;9.192;2023-05-19T09:07:43;19.80;95.70
16732;DHT22;8484;50.904;9.192;2023-05-19T09:10:11;20.10;95.50
16732;DHT22;8484;50.904;9.192;2023-05-19T09:12:44;20.10;95.40
16732;DHT22;8484;50.904;9.192;2023-05-19T09:15:12;19.90;95.30
16732;DHT22;8484;50.904;9.192;2023-05-19T09:17:39;19.30;95.50
16732;DHT22;8484;50.904;9.192;2023-05-19T09:20:08;18.40;97.50
16732;DHT22;8484;50.904;9.192;2023-05-19T09:22:43;17.60;99.60
16732;DHT22;8484;50.904;9.192;2023-05-19T09:25:18;18.50;97.30
16732;DHT22;8484;50.904;9.192;2023-05-19T09:27:47;19.00;99.20
16732;DHT22;8484;50.904;9.192;2023-05-19T09:30:15;19.90;96.60
16732;DHT22;8484;50.904;9.192;2023-05-19T09:32:42;20.40;97.00
16732;DHT22;8484;50.904;9.192;2023-05-19T09:35:10;19.50;97.30
16732;DHT22;8484;50.904;9.192;2023-05-19T09:37:39;19.20;95.30
16732;DHT22;8484;50.904;9.192;2023-05-19T09:40:07;19.40;97.60
16732;DHT22;8484;50.904;9.192;2023-05-19T09:42:39;18.90;94.70
16732;DHT22;8484;50.904;9.192;2023-05-19T09:45:08;18.30;96.00
16732;DHT22;8484;50.904;9.192;2023-05-19T09:47:35;18.80;96.00
16732;DHT22;8484;50.904;9.192;2023-05-19T09:50:04;19.10;95.20
16732;DHT22;8484;50.904;9.192;2023-05-19T09:52:34;19.10;95.80
16732;DHT22;8484;50.904;9.192;2023-05-19T09:55:01;19.30;94.70
16732;DHT22;8484;50.904;9.192;2023-05-19T09:57:33;18.90;95.50
16732;DHT22;8484;50.904;9.192;2023-05-19T10:00:08;19.20;94.90
16732;DHT22;8484;50.904;9.192;2023-05-19T10:02:40;19.40;95.10
16732;DHT22;8484;50.904;9.192;2023-05-19T10:05:10;20.20;95.70
16732;DHT22;8484;50.904;9.192;2023-05-19T10:07:39;20.00;94.00
16732;DHT22;8484;50.904;9.192;2023-05-19T10:10:10;20.30;94.00
16732;DHT22;8484;50.904;9.192;2023-05-19T10:12:38;19.90;94.80
16732;DHT22;8484;50.904;9.192;2023-05-19T10:15:08;20.30;95.40
16732;DHT22;8484;50.904;9.192;2023-05-19T10:17:37;20.50;94.20
16732;DHT22;8484;50.904;9.192;2023-05-19T10:20:07;20.60;94.60
16732;DHT22;8484;50.904;9.192;2023-05-19T10:22:35;21.80;93.70
16732;DHT22;8484;50.904;9.192;2023-05-19T10:25:03;21.50;94.00
16732;DHT22;8484;50.904;9.192;2023-05-19T10:27:31;20.90;94.00
16732;DHT22;8484;50.904;9.192;2023-05-19T10:30:03;21.20;92.60
16732;DHT22;8484;50.904;9.192;2023-05-19T10:32:33;21.60;94.80
16732;DHT22;8484;50.904;9.192;2023-05-19T10:37:56;21.00;94.70
16732;DHT22;8484;50.904;9.192;2023-05-19T10:40:28;21.70;92.10
16732;DHT22;8484;50.904;9.192;2023-05-19T10:43:10;22.50;93.20
16732;DHT22;8484;50.904;9.192;2023-05-19T10:45:46;21.40;93.00
16732;DHT22;8484;50.904;9.192;2023-05-19T10:48:15;20.50;92.00
16732;DHT22;8484;50.904;9.192;2023-05-19T10:50:43;20.80;92.10
16732;DHT22;8484;50.904;9.192;2023-05-19T10:53:13;21.00;94.00
16732;DHT22;8484;50.904;9.192;2023-05-19T10:55:50;21.60;93.70
16732;DHT22;8484;50.904;9.192;2023-05-19T11:01:19;21.60;93.20
16732;DHT22;8484;50.904;9.192;2023-05-19T11:03:49;20.60;93.40
16732;DHT22;8484;50.904;9.192;2023-05-19T11:06:23;20.20;92.70
16732;DHT22;8484;50.904;9.192;2023-05-19T11:08:57;20.80;93.50
16732;DHT22;8484;50.904;9.192;2023-05-19T11:11:25;20.60;93.50
16732;DHT22;8484;50.904;9.192;2023-05-19T11:13:53;21.90;93.10
16732;DHT22;8484;50.904;9.192;2023-05-19T11:16:28;22.20;92.00
16732;DHT22;8484;50.904;9.192;2023-05-19T11:18:58;21.50;91.90
16732;DHT22;8484;50.904;9.192;2023-05-19T11:21:40;21.90;89.30
16732;DHT22;8484;50.904;9.192;2023-05-19T11:24:07;22.60;91.20
16732;DHT22;8484;50.904;9.192;2023-05-19T11:26:41;23.10;90.60
16732;DHT22;8484;50.904;9.192;2023-05-19T11:29:09;22.70;90.50
16732;DHT22;8484;50.904;9.192;2023-05-19T11:31:38;22.50;90.10
16732;DHT22;8484;50.904;9.192;2023-05-19T11:34:07;21.40;90.10
16732;DHT22;8484;50.904;9.192;2023-05-19T11:36:36;21.50;90.90
16732;DHT22;8484;50.904;9.192;2023-05-19T11:39:04;21.50;91.80
16732;DHT22;8484;50.904;9.192;2023-05-19T11:41:32;22.40;90.30
16732;DHT22;8484;50.904;9.192;2023-05-19T11:44:08;22.20;90.60
16732;DHT22;8484;50.904;9.192;2023-05-19T11:46:36;21.70;90.90
16732;DHT22;8484;50.904;9.192;2023-05-19T11:49:05;21.50;90.80
16732;DHT22;8484;50.904;9.192;2023-05-19T11:51:33;21.10;91.80
16732;DHT22;8484;50.904;9.192;2023-05-19T11:54:01;20.30;92.30
16732;DHT22;8484;50.904;9.192;2023-05-19T11:56:32;19.90;91.60
16732;DHT22;8484;50.904;9.192;2023-05-19T11:58:59;20.50;92.70
16732;DHT22;8484;50.904;9.192;2023-05-19T12:01:26;21.10;93.00
16732;DHT22;8484;50.904;9.192;2023-05-19T12:03:53;20.30;92.40
16732;DHT22;8484;50.904;9.192;2023-05-19T12:06:21;20.30;92.80
16732;DHT22;8484;50.904;9.192;2023-05-19T12:08:49;20.80;92.80
16732;DHT22;8484;50.904;9.192;2023-05-19T12:11:17;20.60;93.70
16732;DHT22;8484;50.904;9.192;2023-05-19T12:13:44;21.10;94.00
16732;DHT22;8484;50.904;9.192;2023-05-19T12:16:12;20.20;93.30
16732;DHT22;8484;50.904;9.192;2023-05-19T12:18:39;19.70;93.40
16732;DHT22;8484;50.904;9.192;2023-05-19T12:21:06;19.60;93.30
16732;DHT22;8484;50.904;9.192;2023-05-19T12:23:34;20.20;93.50
16732;DHT22;8484;50.904;9.192;2023-05-19T12:26:01;20.70;94.20
16732;DHT22;8484;50.904;9.192;2023-05-19T12:28:29;20.70;93.50
16732;DHT22;8484;50.904;9.192;2023-05-19T12:30:56;20.80;93.60
16732;DHT22;8484;50.904;9.192;2023-05-19T12:33:23;20.70;92.90
16732;DHT22;8484;50.904;9.192;2023-05-19T12:35:50;21.10;92.70
16732;DHT22;8484;50.904;9.192;2023-05-19T12:38:18;21.50;93.10
16732;DHT22;8484;50.904;9.192;2023-05-19T12:40:46;21.40;92.40
16732;DHT22;8484;50.904;9.192;2023-05-19T12:43:18;20.60;93.80
16732;DHT22;8484;50.904;9.192;2023-05-19T12:45:45;21.30;93.40
16732;DHT22;8484;50.904;9.192;2023-05-19T12:48:12;21.60;93.70
16732;DHT22;8484;50.904;9.192;2023-05-19T12:50:41;21.20;93.10
16732;DHT22;8484;50.904;9.192;2023-05-19T12:53:10;21.10;91.80
16732;DHT22;8484;50.904;9.192;2023-05-19T12:55:38;19.90;93.50
16732;DHT22;8484;50.904;9.192;2023-05-19T12:58:09;19.30;93.80
16732;DHT22;8484;50.904;9.192;2023-05-19T13:00:40;19.10;94.70
16732;DHT22;8484;50.904;9.192;2023-05-19T13:03:13;20.10;94.50
16732;DHT22;8484;50.904;9.192;2023-05-19T13:05:42;21.00;92.10
16732;DHT22;8484;50.904;9.192;2023-05-19T13:08:11;21.00;93.30
16732;DHT22;8484;50.904;9.192;2023-05-19T13:10:39;21.40;92.50
16732;DHT22;8484;50.904;9.192;2023-05-19T13:13:08;21.60;92.30
16732;DHT22;8484;50.904;9.192;2023-05-19T13:15:37;21.80;92.20
16732;DHT22;8484;50.904;9.192;2023-05-19T13:18:06;21.10;92.00
16732;DHT22;8484;50.904;9.192;2023-05-19T13:20:34;20.20;92.40
16732;DHT22;8484;50.904;9.192;2023-05-19T13:23:02;20.30;92.60
16732;DHT22;8484;50.904;9.192;2023-05-19T13:25:29;20.70;92.30
16732;DHT22;8484;50.904;9.192;2023-05-19T13:27:56;20.70;93.40
16732;DHT22;8484;50.904;9.192;2023-05-19T13:30:27;20.30;91.70
16732;DHT22;8484;50.904;9.192;2023-05-19T13:32:53;19.90;91.10
16732;DHT22;8484;50.904;9.192;2023-05-19T13:35:20;19.00;93.40
16732;DHT22;8484;50.904;9.192;2023-05-19T13:37:48;19.00;92.60
16732;DHT22;8484;50.904;9.192;2023-05-19T13:40:15;18.90;93.80
16732;DHT22;8484;50.904;9.192;2023-05-19T13:42:43;19.10;91.90
16732;DHT22;8484;50.904;9.192;2023-05-19T13:45:10;19.50;91.40
16732;DHT22;8484;50.904;9.192;2023-05-19T13:47:39;19.70;91.20
16732;DHT22;8484;50.904;9.192;2023-05-19T13:50:06;19.50;92.80
16732;DHT22;8484;50.904;9.192;2023-05-19T13:52:33;19.30;91.30
16732;DHT22;8484;50.904;9.192;2023-05-19T13:55:00;19.10;91.70
16732;DHT22;8484;50.904;9.192;2023-05-19T13:57:26;19.00;92.40
16732;DHT22;8484;50.904;9.192;2023-05-19T13:59:54;19.50;92.60
16732;DHT22;8484;50.904;9.192;2023-05-19T14:02:20;19.40;92.30
16732;DHT22;8484;50.904;9.192;2023-05-19T14:04:49;19.50;92.30
16732;DHT22;8484;50.904;9.192;2023-05-19T14:07:16;19.80;92.80
16732;DHT22;8484;50.904;9.192;2023-05-19T14:09:44;19.60;92.50
16732;DHT22;8484;50.904;9.192;2023-05-19T14:12:11;19.60;92.40
16732;DHT22;8484;50.904;9.192;2023-05-19T14:14:38;19.80;92.30
16732;DHT22;8484;50.904;9.192;2023-05-19T14:17:05;20.20;89.80
16732;DHT22;8484;50.904;9.192;2023-05-19T14:19:32;19.70;92.40
16732;DHT22;8484;50.904;9.192;2023-05-19T14:22:00;19.90;90.70
16732;DHT22;8484;50.904;9.192;2023-05-19T14:24:27;20.20;90.10
16732;DHT22;8484;50.904;9.192;2023-05-19T14:26:55;20.20;90.70
16732;DHT22;8484;50.904;9.192;2023-05-19T14:29:21;19.80;92.50
16732;DHT22;8484;50.904;9.192;2023-05-19T14:31:48;20.40;90.00
16732;DHT22;8484;50.904;9.192;2023-05-19T14:34:15;20.40;90.90
16732;DHT22;8484;50.904;9.192;2023-05-19T14:36:45;20.20;90.90
16732;DHT22;8484;50.904;9.192;2023-05-19T14:39:14;20.30;89.80
16732;DHT22;8484;50.904;9.192;2023-05-19T14:41:41;19.70;92.00
16732;DHT22;8484;50.904;9.192;2023-05-19T14:44:08;19.50;93.30
16732;DHT22;8484;50.904;9.192;2023-05-19T14:46:35;19.70;91.30
16732;DHT22;8484;50.904;9.192;2023-05-19T14:49:01;19.20;92.70
16732;DHT22;8484;50.904;9.192;2023-05-19T14:51:30;19.10;92.70
16732;DHT22;8484;50.904;9.192;2023-05-19T14:53:57;19.10;92.10
16732;DHT22;8484;50.904;9.192;2023-05-19T14:56:26;18.90;91.80
16732;DHT22;8484;50.904;9.192;2023-05-19T14:58:52;18.80;92.40
16732;DHT22;8484;50.904;9.192;2023-05-19T15:01:19;19.00;92.80
16732;DHT22;8484;50.904;9.192;2023-05-19T15:03:46;19.20;93.10
16732;DHT22;8484;50.904;9.192;2023-05-19T15:06:13;18.90;93.60
16732;DHT22;8484;50.904;9.192;2023-05-19T15:08:40;19.10;93.60
16732;DHT22;8484;50.904;9.192;2023-05-19T15:11:07;19.10;93.10
16732;DHT22;8484;50.904;9.192;2023-05-19T15:13:35;18.90;93.80
16732;DHT22;8484;50.904;9.192;2023-05-19T15:16:02;19.30;92.70
16732;DHT22;8484;50.904;9.192;2023-05-19T15:18:29;19.50;92.80
16732;DHT22;8484;50.904;9.192;2023-05-19T15:20:56;18.90;93.30
16732;DHT22;8484;50.904;9.192;2023-05-19T15:23:23;19.00;93.50
16732;DHT22;8484;50.904;9.192;2023-05-19T15:25:50;18.80;92.70
16732;DHT22;8484;50.904;9.192;2023-05-19T15:28:18;18.60;93.50
16732;DHT22;8484;50.904;9.192;2023-05-19T15:30:46;18.70;93.50
16732;DHT22;8484;50.904;9.192;2023-05-19T15:33:13;18.70;93.30
16732;DHT22;8484;50.904;9.192;2023-05-19T15:35:40;18.60;93.50
16732;DHT22;8484;50.904;9.192;2023-05-19T15:38:07;18.70;93.50
16732;DHT22;8484;50.904;9.192;2023-05-19T15:40:34;18.60;93.90
16732;DHT22;8484;50.904;9.192;2023-05-19T15:43:01;18.70;92.90
16732;DHT22;8484;50.904;9.192;2023-05-19T15:45:28;18.60;93.60
16732;DHT22;8484;50.904;9.192;2023-05-19T15:47:56;18.80;93.50
16732;DHT22;8484;50.904;9.192;2023-05-19T15:50:23;18.70;93.50
16732;DHT22;8484;50.904;9.192;2023-05-19T15:52:51;18.70;91.80
16732;DHT22;8484;50.904;9.192;2023-05-19T15:55:18;18.60;92.30
16732;DHT22;8484;50.904;9.192;2023-05-19T15:57:45;19.00;92.00
16732;DHT22;8484;50.904;9.192;2023-05-19T16:00:13;18.80;93.10
16732;DHT22;8484;50.904;9.192;2023-05-19T16:02:40;18.70;93.20
16732;DHT22;8484;50.904;9.192;2023-05-19T16:05:08;18.50;93.70
16732;DHT22;8484;50.904;9.192;2023-05-19T16:07:35;18.30;93.60
16732;DHT22;8484;50.904;9.192;2023-05-19T16:10:02;18.30;94.30